createdAt,value
2023-01-02T00:01:15.067Z,55.13
2023-01-02T00:03:43.352Z,51.08
2023-01-02T00:06:11.639Z,50.38
2023-01-02T00:08:39.925Z,47.92
2023-01-02T00:11:08.078Z,51.45
2023-01-02T00:13:36.281Z,50.58
2023-01-02T00:16:04.715Z,50.40
2023-01-02T00:18:32.980Z,51.15
2023-01-02T00:21:05.812Z,50.42
2023-01-02T00:23:34.934Z,51.97
2023-01-02T00:26:06.399Z,50.55
2023-01-02T00:28:35.999Z,51.55
2023-01-02T00:31:13.067Z,50.80
2023-01-02T00:33:41.793Z,51.38
2023-01-02T00:36:12.531Z,49.72
2023-01-02T00:38:41.517Z,50.05
2023-01-02T00:41:10.046Z,51.42
2023-01-02T00:43:38.464Z,52.25
2023-01-02T00:46:11.501Z,51.92
2023-01-02T00:48:40.746Z,52.00
2023-01-02T00:51:09.503Z,53.72
2023-01-02T00:53:37.998Z,52.83
2023-01-02T00:56:06.562Z,55.00
2023-01-02T00:58:34.931Z,54.45
2023-01-02T01:01:03.310Z,54.30
2023-01-02T01:03:31.964Z,53.78
2023-01-02T01:06:08.013Z,52.55
2023-01-02T01:08:39.659Z,52.80
2023-01-02T01:11:11.382Z,52.47
2023-01-02T01:13:41.834Z,53.22
2023-01-02T01:16:16.137Z,53.42
2023-01-02T01:18:44.950Z,54.15
2023-01-02T01:21:19.062Z,53.90
2023-01-02T01:23:51.619Z,51.00
2023-01-02T01:26:20.905Z,50.63
2023-01-02T01:28:51.439Z,52.80
2023-01-02T01:31:20.230Z,53.97
2023-01-02T01:33:48.856Z,51.97
2023-01-02T01:36:19.587Z,51.72
2023-01-02T01:38:48.103Z,51.58
2023-01-02T01:41:19.205Z,51.85
2023-01-02T01:43:56.452Z,50.03
2023-01-02T01:46:38.828Z,52.22
2023-01-02T01:49:30.154Z,52.88
2023-01-02T01:52:14.013Z,51.40
2023-01-02T01:54:52.039Z,51.30
2023-01-02T01:57:28.350Z,52.83
2023-01-02T01:59:58.353Z,53.10
2023-01-02T02:02:28.923Z,52.65
2023-01-02T02:05:00.019Z,52.97
2023-01-02T02:07:29.143Z,55.08
2023-01-02T02:10:11.518Z,55.47
2023-01-02T02:12:39.745Z,51.95
2023-01-02T02:15:21.010Z,54.28
2023-01-02T02:18:12.981Z,53.05
2023-01-02T02:21:23.564Z,54.20
2023-01-02T02:24:09.702Z,53.15
2023-01-02T02:27:08.925Z,52.08
2023-01-02T02:30:08.024Z,53.47
2023-01-02T02:32:55.683Z,55.85
2023-01-02T02:35:59.570Z,53.92
2023-01-02T02:38:49.461Z,55.67
2023-01-02T02:41:32.243Z,57.40
2023-01-02T02:44:03.541Z,54.75
2023-01-02T02:47:04.547Z,55.65
2023-01-02T02:49:57.033Z,53.38
2023-01-02T02:52:33.163Z,53.75
2023-01-02T02:55:07.282Z,49.78
2023-01-02T02:57:36.922Z,49.95
2023-01-02T03:00:12.369Z,48.13
2023-01-02T03:02:41.127Z,50.08
2023-01-02T03:05:16.521Z,49.60
2023-01-02T03:07:56.121Z,47.10
2023-01-02T03:10:46.540Z,49.13
2023-01-02T03:13:41.035Z,48.70
2023-01-02T03:16:19.462Z,48.38
2023-01-02T03:19:14.759Z,49.25
2023-01-02T03:22:00.915Z,48.28
2023-01-02T03:24:30.904Z,51.33
2023-01-02T03:27:22.656Z,51.17
2023-01-02T03:30:08.639Z,49.40
2023-01-02T03:32:43.851Z,46.13
2023-01-02T03:35:16.715Z,46.72
2023-01-02T03:37:50.137Z,47.22
2023-01-02T03:43:16.786Z,46.40
2023-01-02T03:46:31.628Z,47.55
2023-01-02T03:49:08.162Z,46.28
2023-01-02T03:51:36.472Z,45.35
2023-01-02T03:54:08.547Z,47.42
2023-01-02T03:56:47.186Z,47.83
2023-01-02T03:59:45.071Z,46.40
2023-01-02T04:02:32.116Z,48.15
2023-01-02T04:05:26.162Z,49.13
2023-01-02T04:08:02.744Z,46.53
2023-01-02T04:10:34.545Z,47.33
2023-01-02T04:13:11.606Z,46.67
2023-01-02T04:15:42.017Z,47.92
2023-01-02T04:18:16.315Z,49.75
2023-01-02T04:20:49.983Z,47.67
2023-01-02T04:23:27.537Z,48.28
2023-01-02T04:26:04.833Z,47.03
2023-01-02T04:28:34.818Z,50.95
2023-01-02T04:31:17.832Z,51.58
2023-01-02T04:33:51.642Z,50.08
2023-01-02T04:36:20.430Z,51.55
2023-01-02T04:38:48.859Z,49.60
2023-01-02T04:41:27.295Z,48.75
2023-01-02T04:43:56.705Z,47.88
2023-01-02T04:46:26.817Z,53.10
2023-01-02T04:48:55.327Z,47.70
2023-01-02T04:51:42.175Z,51.42
2023-01-02T04:54:12.283Z,48.65
2023-01-02T04:56:40.499Z,49.92
2023-01-02T04:59:08.765Z,51.15
2023-01-02T05:01:37.052Z,52.20
2023-01-02T05:04:05.410Z,48.47
2023-01-02T05:06:33.645Z,49.45
2023-01-02T05:09:01.935Z,52.35
2023-01-02T05:11:30.251Z,47.28
2023-01-02T05:14:03.852Z,49.60
2023-01-02T05:16:35.297Z,49.67
2023-01-02T05:19:03.588Z,49.40
2023-01-02T05:21:50.372Z,49.13
2023-01-02T05:24:18.644Z,50.60
2023-01-02T05:26:46.837Z,49.80
2023-01-02T05:29:15.137Z,49.63
2023-01-02T05:31:43.465Z,49.60
2023-01-02T05:34:15.460Z,49.95
2023-01-02T05:36:43.946Z,47.85
2023-01-02T05:39:13.897Z,45.70
2023-01-02T05:41:42.509Z,49.25
2023-01-02T05:44:11.365Z,46.80
2023-01-02T05:46:40.466Z,48.22
2023-01-02T05:49:10.268Z,48.70
2023-01-02T05:51:41.539Z,46.70
2023-01-02T05:54:09.768Z,45.95
2023-01-02T05:56:38.010Z,44.20
2023-01-02T05:59:11.278Z,44.92
2023-01-02T06:01:39.586Z,44.83
2023-01-02T06:04:08.044Z,46.42
2023-01-02T06:06:38.561Z,45.78
2023-01-02T06:09:11.900Z,46.80
2023-01-02T06:11:40.592Z,45.20
2023-01-02T06:14:10.612Z,43.42
2023-01-02T06:16:39.315Z,41.58
2023-01-02T06:19:07.743Z,42.65
2023-01-02T06:21:36.086Z,41.95
2023-01-02T06:24:04.326Z,46.45
2023-01-02T06:26:35.236Z,43.20
2023-01-02T06:29:04.663Z,41.33
2023-01-02T06:31:33.762Z,42.05
2023-01-02T06:34:03.786Z,41.80
2023-01-02T06:36:34.537Z,44.97
2023-01-02T06:39:02.876Z,40.00
2023-01-02T06:41:31.262Z,40.33
2023-01-02T06:43:59.483Z,41.10
2023-01-02T06:46:27.679Z,43.65
2023-01-02T06:48:56.034Z,41.92
2023-01-02T06:51:24.629Z,43.45
2023-01-02T06:53:53.027Z,40.50
2023-01-02T06:56:22.077Z,43.45
2023-01-02T06:58:50.609Z,42.10
2023-01-02T07:01:22.994Z,45.42
2023-01-02T07:03:51.339Z,45.38
2023-01-02T07:06:21.870Z,42.97
2023-01-02T07:08:50.498Z,46.45
2023-01-02T07:11:20.391Z,40.95
2023-01-02T07:13:50.897Z,42.80
2023-01-02T07:16:21.846Z,46.80
2023-01-02T07:18:51.641Z,45.28
2023-01-02T07:21:20.159Z,45.00
2023-01-02T07:23:48.442Z,43.78
2023-01-02T07:26:17.354Z,44.03
2023-01-02T07:28:47.141Z,44.92
2023-01-02T07:31:17.925Z,45.75
2023-01-02T07:33:46.834Z,44.13
2023-01-02T07:36:17.391Z,46.78
2023-01-02T07:38:50.080Z,43.60
2023-01-02T07:41:23.074Z,43.75
2023-01-02T07:43:53.628Z,43.28
2023-01-02T07:46:24.103Z,43.55
2023-01-02T07:48:52.352Z,44.67
2023-01-02T07:51:26.628Z,45.35
2023-01-02T07:53:57.352Z,46.33
2023-01-02T07:56:26.460Z,40.50
2023-01-02T07:58:54.936Z,41.65
2023-01-02T08:01:23.369Z,43.30
2023-01-02T08:03:51.895Z,41.65
2023-01-02T08:06:20.538Z,43.80
2023-01-02T08:08:48.932Z,44.70
2023-01-02T08:11:23.087Z,44.00
2023-01-02T08:13:51.694Z,43.38
2023-01-02T08:16:21.795Z,47.80
2023-01-02T08:18:54.604Z,44.00
2023-01-02T08:21:24.518Z,42.63
2023-01-02T08:23:53.064Z,43.65
2023-01-02T08:26:21.708Z,42.60
2023-01-02T08:28:49.932Z,41.33
2023-01-02T08:31:20.936Z,39.20
2023-01-02T08:33:50.074Z,40.13
2023-01-02T08:36:19.915Z,40.22
2023-01-02T08:38:48.178Z,42.42
2023-01-02T08:41:29.434Z,42.63
2023-01-02T08:43:57.714Z,40.10
2023-01-02T08:46:26.151Z,41.80
2023-01-02T08:48:55.023Z,43.55
2023-01-02T08:51:23.955Z,40.13
2023-01-02T08:53:52.321Z,40.67
2023-01-02T08:56:31.783Z,42.22
2023-01-02T08:59:09.442Z,41.35
2023-01-02T09:01:39.148Z,43.38
2023-01-02T09:04:12.466Z,40.75
2023-01-02T09:06:43.358Z,42.20
2023-01-02T09:09:15.549Z,40.83
2023-01-02T09:11:49.008Z,44.17
2023-01-02T09:14:19.077Z,45.05
2023-01-02T09:16:47.939Z,44.70
2023-01-02T09:19:16.485Z,47.33
2023-01-02T09:21:44.812Z,44.13
2023-01-02T09:24:13.852Z,47.15
2023-01-02T09:26:42.709Z,46.28
2023-01-02T09:29:13.097Z,46.28
2023-01-02T09:31:42.210Z,44.63
2023-01-02T09:34:13.620Z,43.85
2023-01-02T09:36:41.817Z,43.22
2023-01-02T09:39:10.259Z,40.70
2023-01-02T09:41:41.597Z,43.65
2023-01-02T09:44:21.714Z,42.00
2023-01-02T09:47:12.956Z,43.78
2023-01-02T09:49:48.574Z,44.88
2023-01-02T09:52:19.953Z,45.17
2023-01-02T09:54:48.314Z,44.90
2023-01-02T09:57:28.849Z,44.97
2023-01-02T10:00:24.769Z,44.72
2023-01-02T10:03:07.617Z,45.65
2023-01-02T10:05:50.731Z,47.47
2023-01-02T10:08:25.092Z,49.88
2023-01-02T10:11:18.857Z,48.35
2023-01-02T10:16:54.838Z,49.72
2023-01-02T10:22:26.406Z,45.72
2023-01-02T10:25:07.798Z,45.28
2023-01-02T10:27:49.325Z,47.47
2023-01-02T10:30:22.360Z,49.00
2023-01-02T10:33:15.436Z,45.35
2023-01-02T10:35:53.225Z,46.03
2023-01-02T10:38:21.623Z,45.42
2023-01-02T10:40:51.543Z,46.67
2023-01-02T10:43:20.349Z,47.38
2023-01-02T10:45:48.581Z,47.75
2023-01-02T10:48:16.849Z,50.35
2023-01-02T10:50:53.295Z,50.28
2023-01-02T10:53:29.556Z,50.80
2023-01-02T10:56:05.854Z,51.53
2023-01-02T10:58:35.285Z,48.88
2023-01-02T11:01:20.938Z,51.25
2023-01-02T11:03:57.605Z,49.13
2023-01-02T11:06:37.357Z,48.60
2023-01-02T11:09:21.536Z,49.90
2023-01-02T11:12:07.027Z,48.38
2023-01-02T11:14:37.344Z,49.38
2023-01-02T11:17:18.357Z,49.45
2023-01-02T11:19:57.060Z,47.75
2023-01-02T11:22:35.621Z,47.05
2023-01-02T11:25:07.728Z,47.20
2023-01-02T11:27:41.563Z,48.47
2023-01-02T11:30:26.511Z,46.53
2023-01-02T11:33:13.452Z,47.35
2023-01-02T11:36:04.652Z,46.53
2023-01-02T11:39:07.342Z,47.38
2023-01-02T11:42:20.447Z,48.70
2023-01-02T11:45:05.310Z,44.28
2023-01-02T11:47:44.476Z,48.45
2023-01-02T11:50:28.248Z,49.10
2023-01-02T11:53:09.003Z,49.83
2023-01-02T11:55:55.449Z,49.88
2023-01-02T11:58:45.013Z,51.05
2023-01-02T12:01:22.827Z,48.20
2023-01-02T12:03:51.478Z,46.67
2023-01-02T12:06:37.740Z,48.88
2023-01-02T12:09:12.745Z,48.08
2023-01-02T12:12:22.514Z,46.80
2023-01-02T12:15:15.577Z,47.50
2023-01-02T12:17:51.533Z,50.67
2023-01-02T12:20:32.629Z,46.70
2023-01-02T12:23:09.736Z,45.65
2023-01-02T12:26:13.464Z,43.30
2023-01-02T12:29:04.888Z,45.78
2023-01-02T12:31:48.173Z,44.95
2023-01-02T12:34:34.972Z,43.47
2023-01-02T12:37:24.502Z,43.42
2023-01-02T12:40:20.435Z,43.80
2023-01-02T12:42:58.304Z,44.40
2023-01-02T12:45:44.467Z,42.83
2023-01-02T12:48:35.814Z,42.88
2023-01-02T12:51:26.091Z,45.15
2023-01-02T12:54:29.694Z,43.50
2023-01-02T12:57:18.356Z,43.40
2023-01-02T12:59:58.732Z,42.22
2023-01-02T13:03:04.628Z,44.38
2023-01-02T13:05:51.266Z,41.17
2023-01-02T13:08:42.887Z,42.30
2023-01-02T13:11:15.165Z,44.65
2023-01-02T13:13:43.756Z,42.40
2023-01-02T13:16:24.859Z,44.78
2023-01-02T13:19:16.511Z,44.42
2023-01-02T13:21:53.936Z,41.40
2023-01-02T13:24:25.992Z,41.28
2023-01-02T13:26:56.572Z,40.63
2023-01-02T13:29:39.485Z,42.22
2023-01-02T13:32:10.544Z,43.15
2023-01-02T13:34:53.371Z,44.38
2023-01-02T13:37:25.364Z,40.60
2023-01-02T13:40:24.787Z,44.58
2023-01-02T13:42:58.538Z,41.58
2023-01-02T13:45:32.749Z,42.47
2023-01-02T13:48:33.471Z,41.97
2023-01-02T13:51:23.542Z,44.10
2023-01-02T13:53:53.065Z,42.80
2023-01-02T13:56:26.137Z,40.22
2023-01-02T13:59:00.576Z,39.65
2023-01-02T14:01:37.946Z,42.85
2023-01-02T14:04:19.624Z,41.38
2023-01-02T14:06:53.527Z,40.83
2023-01-02T14:09:24.021Z,39.92
2023-01-02T14:12:02.043Z,39.80
2023-01-02T14:14:47.773Z,40.40
2023-01-02T14:17:43.045Z,40.63
2023-01-02T14:20:33.398Z,41.10
2023-01-02T14:23:23.371Z,39.20
2023-01-02T14:25:51.940Z,41.05
2023-01-02T14:28:35.383Z,38.35
2023-01-02T14:31:24.082Z,39.00
2023-01-02T14:33:56.465Z,40.30
2023-01-02T14:36:46.360Z,39.10
2023-01-02T14:39:36.842Z,40.35
2023-01-02T14:42:53.258Z,40.13
2023-01-02T14:45:23.939Z,38.97
2023-01-02T14:48:15.595Z,42.00
2023-01-02T14:50:47.326Z,42.28
2023-01-02T14:53:20.116Z,40.58
2023-01-02T14:55:51.689Z,38.10
2023-01-02T14:58:44.293Z,35.58
2023-01-02T15:01:43.929Z,35.42
2023-01-02T15:04:25.856Z,38.40
2023-01-02T15:07:10.670Z,37.10
2023-01-02T15:09:44.382Z,36.67
2023-01-02T15:12:48.864Z,37.90
2023-01-02T15:15:20.275Z,36.45
2023-01-02T15:17:50.796Z,38.17
2023-01-02T15:20:25.310Z,36.45
2023-01-02T15:22:55.558Z,36.58
2023-01-02T15:25:41.561Z,40.42
2023-01-02T15:28:28.873Z,38.50
2023-01-02T15:31:10.916Z,39.88
2023-01-02T15:33:43.211Z,38.65
2023-01-02T15:36:16.203Z,36.10
2023-01-02T15:38:45.434Z,41.10
2023-01-02T15:41:20.650Z,39.70
2023-01-02T15:44:13.420Z,39.97
2023-01-02T15:46:41.736Z,36.58
2023-01-02T15:49:14.284Z,39.33
2023-01-02T15:51:42.652Z,39.90
2023-01-02T15:54:15.227Z,37.88
2023-01-02T15:56:43.676Z,38.30
2023-01-02T15:59:26.949Z,36.55
2023-01-02T16:01:55.491Z,37.53
2023-01-02T16:04:26.730Z,38.00
2023-01-02T16:06:57.238Z,37.35
2023-01-02T16:09:32.237Z,37.00
2023-01-02T16:12:03.228Z,36.55
2023-01-02T16:14:40.713Z,35.95
2023-01-02T16:17:31.733Z,38.17
2023-01-02T16:20:04.241Z,38.63
2023-01-02T16:22:46.990Z,36.43
2023-01-02T16:25:21.139Z,37.40
2023-01-02T16:27:55.446Z,34.60
2023-01-02T16:30:28.799Z,36.92
2023-01-02T16:32:59.618Z,36.45
2023-01-02T16:35:30.865Z,36.40
2023-01-02T16:38:00.088Z,36.13
2023-01-02T16:41:00.238Z,36.50
2023-01-02T16:43:42.883Z,38.22
2023-01-02T16:46:15.085Z,36.25
2023-01-02T16:48:44.482Z,34.13
2023-01-02T16:51:15.875Z,35.58
2023-01-02T16:53:46.008Z,36.60
2023-01-02T16:56:15.747Z,35.38
2023-01-02T16:58:45.126Z,35.05
2023-01-02T17:01:15.191Z,34.13
2023-01-02T17:03:45.348Z,35.78
2023-01-02T17:06:16.054Z,32.78
2023-01-02T17:08:44.602Z,33.53
2023-01-02T17:11:19.204Z,37.15
2023-01-02T17:13:47.473Z,36.03
2023-01-02T17:16:16.097Z,33.92
2023-01-02T17:18:44.813Z,32.20
2023-01-02T17:21:13.093Z,38.38
2023-01-02T17:23:41.280Z,38.47
2023-01-02T17:26:09.463Z,36.13
2023-01-02T17:28:40.733Z,40.47
2023-01-02T17:31:13.420Z,39.67
2023-01-02T17:33:41.659Z,40.38
2023-01-02T17:36:09.961Z,39.45
2023-01-02T17:38:38.131Z,39.33
2023-01-02T17:41:07.206Z,39.03
2023-01-02T17:43:35.483Z,34.63
2023-01-02T17:46:30.753Z,33.85
2023-01-02T17:48:56.269Z,34.00
2023-01-02T17:51:24.624Z,36.85
2023-01-02T17:53:55.096Z,33.47
2023-01-02T17:56:24.517Z,34.25
2023-01-02T17:58:52.791Z,35.92
2023-01-02T18:01:22.327Z,34.80
2023-01-02T18:03:51.027Z,33.83
2023-01-02T18:06:19.548Z,33.10
2023-01-02T18:08:47.879Z,35.60
2023-01-02T18:11:17.799Z,38.50
2023-01-02T18:13:50.356Z,35.88
2023-01-02T18:16:22.017Z,34.80
2023-01-02T18:18:51.012Z,33.85
2023-01-02T18:21:22.461Z,32.40
2023-01-02T18:23:56.118Z,35.28
2023-01-02T18:26:26.583Z,37.22
2023-01-02T18:29:01.555Z,30.58
2023-01-02T18:31:43.436Z,35.08
2023-01-02T18:34:47.775Z,34.83
2023-01-02T18:37:26.148Z,32.28
2023-01-02T18:39:55.922Z,31.80
2023-01-02T18:42:30.997Z,32.80
2023-01-02T18:45:00.698Z,32.75
2023-01-02T18:47:30.492Z,34.17
2023-01-02T18:50:09.061Z,33.47
2023-01-02T18:52:38.999Z,32.53
2023-01-02T18:55:22.732Z,32.20
2023-01-02T18:58:10.162Z,30.17
2023-01-02T19:00:39.874Z,33.35
2023-01-02T19:03:08.621Z,30.38
2023-01-02T19:05:44.917Z,32.75
2023-01-02T19:08:22.332Z,33.53
2023-01-02T19:10:58.666Z,31.48
2023-01-02T19:13:32.377Z,30.92
2023-01-02T19:16:01.496Z,33.35
2023-01-02T19:18:36.420Z,32.38
2023-01-02T19:21:29.640Z,32.88
2023-01-02T19:23:59.026Z,35.95
2023-01-02T19:26:42.253Z,34.00
2023-01-02T19:29:10.380Z,32.85
2023-01-02T19:32:11.350Z,32.88
2023-01-02T19:34:50.778Z,33.03
2023-01-02T19:37:40.839Z,33.38
2023-01-02T19:40:18.669Z,36.00
2023-01-02T19:42:52.715Z,34.70
2023-01-02T19:45:26.767Z,35.83
2023-01-02T19:47:55.358Z,31.33
2023-01-02T19:50:25.990Z,35.50
2023-01-02T19:52:54.782Z,34.90
2023-01-02T19:55:23.016Z,38.03
2023-01-02T19:57:51.380Z,36.60
2023-01-02T20:00:20.434Z,37.17
2023-01-02T20:02:51.335Z,35.55
2023-01-02T20:05:22.829Z,36.83
2023-01-02T20:07:53.126Z,35.83
2023-01-02T20:10:22.559Z,35.65
2023-01-02T20:12:51.274Z,35.58
2023-01-02T20:15:23.635Z,36.30
2023-01-02T20:17:53.623Z,35.33
2023-01-02T20:20:24.864Z,39.03
2023-01-02T20:22:54.803Z,35.65
2023-01-02T20:25:26.166Z,35.58
2023-01-02T20:28:26.164Z,37.40
2023-01-02T20:30:57.455Z,34.60
2023-01-02T20:33:25.738Z,35.95
2023-01-02T20:35:53.908Z,37.42
2023-01-02T20:38:22.150Z,36.92
2023-01-02T20:40:53.364Z,37.10
2023-01-02T20:43:21.987Z,37.22
2023-01-02T20:45:50.279Z,39.53
2023-01-02T20:48:18.536Z,36.38
2023-01-02T20:50:46.719Z,35.03
2023-01-02T20:53:18.390Z,37.40
2023-01-02T20:56:34.997Z,36.22
2023-01-02T20:59:12.919Z,33.63
2023-01-02T21:01:42.505Z,34.72
2023-01-02T21:04:11.562Z,37.28
2023-01-02T21:06:40.375Z,37.50
2023-01-02T21:09:08.616Z,35.25
2023-01-02T21:11:36.948Z,33.78
2023-01-02T21:14:05.204Z,38.15
2023-01-02T21:16:33.691Z,37.95
2023-01-02T21:19:02.139Z,35.13
2023-01-02T21:21:30.833Z,36.92
2023-01-02T21:23:59.033Z,36.67
2023-01-02T21:26:27.297Z,37.40
2023-01-02T21:28:55.572Z,36.80
2023-01-02T21:31:23.916Z,35.13
2023-01-02T21:33:52.167Z,35.85
2023-01-02T21:36:20.464Z,38.13
2023-01-02T21:38:48.823Z,37.55
2023-01-02T21:41:35.690Z,34.30
2023-01-02T21:44:04.000Z,35.65
2023-01-02T21:46:32.262Z,35.30
2023-01-02T21:49:15.529Z,37.40
2023-01-02T21:51:46.137Z,35.53
2023-01-02T21:54:14.355Z,33.63
2023-01-02T21:56:44.044Z,37.45
2023-01-02T21:59:12.748Z,36.22
2023-01-02T22:01:41.094Z,36.72
2023-01-02T22:04:09.440Z,36.50
2023-01-02T22:06:50.408Z,34.90
2023-01-02T22:09:25.871Z,33.90
2023-01-02T22:11:57.050Z,32.25
2023-01-02T22:14:28.410Z,35.95
2023-01-02T22:16:59.869Z,38.75
2023-01-02T22:19:29.894Z,34.88
2023-01-02T22:21:59.712Z,37.08
2023-01-02T22:24:32.255Z,35.72
2023-01-02T22:27:04.026Z,35.28
2023-01-02T22:30:09.695Z,35.08
2023-01-02T22:32:23.184Z,37.13
2023-01-02T22:34:51.894Z,37.30
2023-01-02T22:37:22.822Z,36.17
2023-01-02T22:39:51.430Z,34.80
2023-01-02T22:43:04.472Z,37.47
2023-01-02T22:45:54.021Z,35.53
2023-01-02T22:48:30.702Z,33.85
2023-01-02T22:51:01.620Z,34.47
2023-01-02T22:53:35.501Z,36.15
2023-01-02T22:56:15.245Z,32.85
2023-01-02T22:58:43.783Z,35.20
2023-01-02T23:01:35.538Z,33.13
2023-01-02T23:04:15.496Z,32.58
2023-01-02T23:07:05.609Z,35.28
2023-01-02T23:09:32.148Z,35.28
2023-01-02T23:12:00.320Z,34.75
2023-01-02T23:14:28.491Z,33.08
2023-01-02T23:17:15.315Z,33.13
2023-01-02T23:19:43.598Z,32.53
2023-01-02T23:22:11.803Z,34.55
2023-01-02T23:24:40.183Z,30.92
2023-01-02T23:27:10.905Z,31.58
2023-01-02T23:29:39.783Z,33.85
2023-01-02T23:32:10.411Z,33.80
2023-01-02T23:34:38.706Z,33.25
2023-01-02T23:37:07.202Z,33.28
2023-01-02T23:39:35.765Z,33.65
2023-01-02T23:42:04.292Z,33.60
2023-01-02T23:44:32.471Z,29.42
2023-01-02T23:47:05.500Z,32.88
2023-01-02T23:49:37.173Z,32.58
2023-01-02T23:52:05.940Z,31.42
2023-01-02T23:54:34.133Z,34.22
2023-01-02T23:57:02.390Z,32.58
2023-01-02T23:59:30.608Z,32.35
